Time;durP1;ratioP1;P1;durP2;ratioP2;P2;SDS_P1;SDS_P2;PMS_P1;PMS_P2;Temp;Humidity;BMP_temperature;BMP_pressure;BME280_temperature;BME280_humidity;BME280_pressure;Samples;Min_cycle;Max_cycle;Signal;HPM_P1;HPM_P2
2021/12/24 00:00:19;;;;;;;64.67;24.53;;;8.60;99.90;;;;;;5027601;28;20201;-72
2021/12/24 00:02:46;;;;;;;61.73;21.50;;;8.60;99.90;;;;;;5037532;28;20198;-71
2021/12/24 00:05:15;;;;;;;66.40;23.23;;;8.50;99.90;;;;;;5027926;28;20248;-72
2021/12/24 00:07:42;;;;;;;57.87;21.73;;;8.50;99.90;;;;;;5004895;28;20256;-71
2021/12/24 00:10:11;;;;;;;50.30;18.20;;;8.50;99.90;;;;;;5024608;28;20254;-72
2021/12/24 00:12:42;;;;;;;55.97;19.13;;;8.50;99.90;;;;;;5022452;28;20213;-72
2021/12/24 00:15:25;;;;;;;63.93;21.53;;;8.50;99.90;;;;;;5020169;28;20219;-71
2021/12/24 00:18:00;;;;;;;58.73;17.10;;;8.50;99.90;;;;;;5032078;28;20316;-71
2021/12/24 00:21:15;;;;;;;46.80;16.73;;;9.20;99.90;;;;;;5033079;28;20685;-72
2021/12/24 00:37:19;;;;;;;46.13;18.37;;;8.70;99.90;;;;;;5039740;28;20225;-71
2021/12/24 00:39:53;;;;;;;46.87;18.17;;;9.60;99.90;;;;;;5022692;28;20209;-72
2021/12/24 00:42:20;;;;;;;45.23;16.43;;;10.70;99.90;;;;;;5033132;28;20651;-72
2021/12/24 00:44:47;;;;;;;50.43;18.53;;;8.80;99.90;;;;;;5041230;28;20220;-71
2021/12/24 00:47:14;;;;;;;57.97;22.40;;;8.80;99.90;;;;;;5037290;28;20236;-72
2021/12/24 00:49:42;;;;;;;46.37;17.23;;;8.80;99.90;;;;;;5011017;28;20242;-72
2021/12/24 00:52:21;;;;;;;50.77;20.63;;;8.80;99.90;;;;;;5028213;28;20236;-72
2021/12/24 00:55:06;;;;;;;61.73;22.03;;;8.80;99.90;;;;;;5029394;28;20719;-72
2021/12/24 00:57:34;;;;;;;50.63;19.60;;;8.80;99.90;;;;;;5001723;28;20232;-71
2021/12/24 01:00:01;;;;;;;56.77;20.67;;;8.80;99.90;;;;;;5024720;28;20201;-71
2021/12/24 01:02:28;;;;;;;41.47;14.13;;;8.70;99.90;;;;;;5011503;28;20220;-72
2021/12/24 01:04:56;;;;;;;49.20;17.50;;;8.70;99.90;;;;;;5019326;28;20285;-72
2021/12/24 01:07:23;;;;;;;60.40;25.10;;;8.70;99.90;;;;;;5012423;28;20274;-72
2021/12/24 01:09:51;;;;;;;42.73;15.27;;;8.70;99.90;;;;;;5009980;28;20871;-71
2021/12/24 01:12:18;;;;;;;59.93;22.47;;;8.70;99.90;;;;;;5008141;28;20217;-72
2021/12/24 01:14:47;;;;;;;48.33;17.17;;;8.80;99.90;;;;;;5008730;28;20300;-71
2021/12/24 01:17:28;;;;;;;50.53;18.97;;;8.80;99.90;;;;;;5023772;28;20233;-72
2021/12/24 01:19:59;;;;;;;49.97;17.17;;;8.70;99.90;;;;;;5002614;28;20640;-71
2021/12/24 01:25:21;;;;;;;57.73;21.60;;;8.80;99.90;;;;;;5032096;28;20298;-71
2021/12/24 01:28:04;;;;;;;49.47;18.33;;;8.80;99.90;;;;;;5007071;28;20252;-71
2021/12/24 01:38:57;;;;;;;57.27;20.27;;;8.80;99.90;;;;;;5019445;28;20218;-70
2021/12/24 01:44:26;;;;;;;55.33;20.93;;;8.80;99.90;;;;;;4965146;28;20227;-70
2021/12/24 01:46:54;;;;;;;49.17;20.03;;;8.80;99.90;;;;;;5019013;28;20241;-70
2021/12/24 01:49:21;;;;;;;58.57;23.53;;;8.80;99.90;;;;;;5030120;28;20237;-70
2021/12/24 01:51:48;;;;;;;58.63;21.50;;;8.80;99.90;;;;;;5030393;28;20212;-70
2021/12/24 01:54:15;;;;;;;61.87;22.93;;;8.90;99.90;;;;;;4995060;28;20213;-70
2021/12/24 01:56:44;;;;;;;49.60;19.30;;;8.90;99.90;;;;;;5015387;28;20207;-70
2021/12/24 01:59:11;;;;;;;59.70;23.10;;;8.90;99.90;;;;;;5014539;28;20216;-71
2021/12/24 02:01:38;;;;;;;52.40;18.53;;;8.90;99.90;;;;;;5019673;28;20563;-72
2021/12/24 02:04:06;;;;;;;63.90;22.07;;;8.90;99.90;;;;;;5011127;28;20216;-72
2021/12/24 02:06:33;;;;;;;59.47;23.57;;;9.00;99.90;;;;;;5023743;28;20219;-72
2021/12/24 02:09:00;;;;;;;57.60;21.30;;;9.00;99.90;;;;;;5024145;28;20315;-72
2021/12/24 02:11:27;;;;;;;54.53;20.67;;;9.00;99.90;;;;;;5014362;28;20210;-71
2021/12/24 02:13:56;;;;;;;75.33;28.13;;;9.00;99.90;;;;;;5003589;28;20286;-71
2021/12/24 02:16:39;;;;;;;86.60;29.70;;;9.00;99.90;;;;;;5004735;28;20602;-71
2021/12/24 02:30:07;;;;;;;74.27;27.50;;;9.10;99.90;;;;;;5023662;28;20328;-72
2021/12/24 02:32:41;;;;;;;59.53;21.43;;;9.10;99.90;;;;;;5011892;28;20315;-71
2021/12/24 02:35:08;;;;;;;76.50;28.13;;;9.20;99.90;;;;;;5030027;28;20217;-72
2021/12/24 02:37:37;;;;;;;69.40;21.83;;;9.20;99.90;;;;;;5012518;28;20225;-73
2021/12/24 02:40:05;;;;;;;71.07;26.60;;;9.20;99.90;;;;;;5021081;28;20222;-72
2021/12/24 02:42:34;;;;;;;85.90;30.73;;;9.20;99.90;;;;;;5024626;28;20205;-72
2021/12/24 02:45:02;;;;;;;93.50;33.30;;;9.20;99.90;;;;;;5014818;28;20292;-72
2021/12/24 02:47:53;;;;;;;81.53;29.00;;;9.20;99.90;;;;;;5014772;28;20228;-72
2021/12/24 02:55:51;;;;;;;74.17;26.70;;;9.10;99.90;;;;;;5010881;28;20330;-72
2021/12/24 02:58:17;;;;;;;86.47;32.60;;;9.20;99.90;;;;;;5015190;28;20544;-72
2021/12/24 03:00:44;;;;;;;90.33;31.40;;;9.20;99.90;;;;;;5035982;28;20333;-72
2021/12/24 03:03:14;;;;;;;84.97;28.83;;;9.20;99.90;;;;;;5008248;28;20625;-72
2021/12/24 03:05:42;;;;;;;59.73;21.87;;;9.20;99.90;;;;;;5011190;28;20629;-72
2021/12/24 03:08:11;;;;;;;70.33;27.17;;;9.10;99.90;;;;;;4996576;28;20234;-72
2021/12/24 03:10:38;;;;;;;92.63;36.53;;;9.20;99.90;;;;;;5034429;28;20231;-72
2021/12/24 03:13:05;;;;;;;60.87;23.80;;;9.20;99.90;;;;;;5009461;28;20247;-72
2021/12/24 03:15:33;;;;;;;73.00;26.07;;;9.20;99.90;;;;;;5010667;28;20267;-72
2021/12/24 03:18:00;;;;;;;84.00;30.60;;;9.20;99.90;;;;;;5016911;28;20798;-72
2021/12/24 03:20:33;;;;;;;111.30;39.87;;;9.20;99.90;;;;;;5034418;28;20322;-72
2021/12/24 03:23:10;;;;;;;83.83;29.93;;;9.20;99.90;;;;;;5012759;28;20286;-72
2021/12/24 03:25:38;;;;;;;112.93;40.37;;;9.20;99.90;;;;;;5019454;28;20216;-72
2021/12/24 03:28:06;;;;;;;98.10;33.00;;;9.30;99.90;;;;;;5016424;28;20233;-72
2021/12/24 03:30:33;;;;;;;87.80;32.67;;;9.60;99.90;;;;;;5014636;28;20236;-72
2021/12/24 03:33:00;;;;;;;104.93;38.27;;;9.30;99.90;;;;;;5012491;28;20220;-72
2021/12/24 03:35:27;;;;;;;105.73;38.30;;;9.30;99.90;;;;;;5013075;28;20227;-72
2021/12/24 03:37:55;;;;;;;87.30;33.13;;;9.30;99.90;;;;;;5020231;28;20236;-72
2021/12/24 03:40:22;;;;;;;87.30;33.50;;;9.30;99.90;;;;;;5027628;28;20207;-72
2021/12/24 03:42:51;;;;;;;94.77;31.73;;;9.30;99.90;;;;;;5011690;28;20259;-72
2021/12/24 03:45:27;;;;;;;59.57;21.50;;;9.30;99.90;;;;;;5033618;28;20217;-72
2021/12/24 03:47:58;;;;;;;118.73;39.77;;;9.30;99.90;;;;;;5032290;28;20220;-72
2021/12/24 03:50:39;;;;;;;52.10;19.07;;;9.30;99.90;;;;;;5032594;28;20331;-72
2021/12/24 03:54:55;;;;;;;95.83;34.43;;;9.30;99.90;;;;;;5006456;28;20226;-71
2021/12/24 03:55:52;;;;;;;82.43;30.50;;;9.30;99.90;;;;;;5036391;28;20798;-70
2021/12/24 03:58:20;;;;;;;116.10;37.77;;;9.20;99.90;;;;;;5012599;28;20233;-70
2021/12/24 04:01:06;;;;;;;92.27;32.87;;;9.20;99.90;;;;;;5027927;28;20263;-71
2021/12/24 04:04:03;;;;;;;96.00;35.20;;;9.20;99.90;;;;;;4969258;28;20215;-70
2021/12/24 04:07:06;;;;;;;83.17;30.33;;;9.20;99.90;;;;;;4957177;28;20243;-70
2021/12/24 04:10:12;;;;;;;87.87;30.50;;;9.20;99.90;;;;;;4956453;28;20350;-71
2021/12/24 04:13:05;;;;;;;102.93;35.17;;;9.30;99.90;;;;;;5028667;28;20649;-70
2021/12/24 04:15:33;;;;;;;91.17;31.57;;;9.30;99.90;;;;;;5014150;28;20216;-71
2021/12/24 04:18:01;;;;;;;95.63;34.30;;;9.30;99.90;;;;;;5008319;28;20307;-71
2021/12/24 04:25:56;;;;;;;114.97;40.70;;;9.30;99.90;;;;;;5007760;28;20253;-71
2021/12/24 04:28:25;;;;;;;64.57;25.73;;;9.40;99.90;;;;;;5010351;28;20233;-70
2021/12/24 04:30:54;;;;;;;130.30;42.73;;;9.40;99.90;;;;;;5011700;28;20597;-71
2021/12/24 04:33:26;;;;;;;102.67;36.17;;;9.40;99.90;;;;;;5008616;28;20239;-71
2021/12/24 04:35:59;;;;;;;132.57;45.50;;;9.50;99.90;;;;;;5008458;28;20566;-70
2021/12/24 04:39:00;;;;;;;107.00;38.33;;;9.50;99.90;;;;;;5004708;28;20798;-71
2021/12/24 04:52:51;;;;;;;106.60;34.10;;;9.50;99.90;;;;;;5017919;28;20667;-70
2021/12/24 05:03:35;;;;;;;;;;;9.50;99.90;;;;;;5010550;28;19921;-71
2021/12/24 05:06:11;;;;;;;;;;;9.50;99.90;;;;;;5014957;28;20163;-71
2021/12/24 05:08:48;;;;;;;;;;;9.40;99.90;;;;;;5029036;28;19983;-71
2021/12/24 05:11:15;;;;;;;;;;;9.50;99.90;;;;;;5016053;28;20395;-71
2021/12/24 05:13:42;;;;;;;;;;;9.50;99.90;;;;;;5002145;28;20008;-71
2021/12/24 05:16:42;;;;;;;;;;;;;;;;;;5029369;28;19925;-72
2021/12/24 05:22:16;;;;;;;;;;;9.50;99.90;;;;;;5020309;28;19933;-71
2021/12/24 05:24:42;;;;;;;;;;;9.50;99.90;;;;;;5014656;28;19961;-71
2021/12/24 05:27:09;;;;;;;;;;;9.50;99.90;;;;;;5032871;28;19947;-71
2021/12/24 05:29:36;;;;;;;;;;;9.50;99.90;;;;;;5039714;28;19936;-70
2021/12/24 05:32:03;;;;;;;;;;;9.50;99.90;;;;;;5045317;28;19936;-71
2021/12/24 05:34:31;;;;;;;;;;;9.60;99.90;;;;;;5028070;28;19925;-71
2021/12/24 05:36:58;;;;;;;;;;;9.60;99.90;;;;;;5038308;28;19925;-71
2021/12/24 05:39:26;;;;;;;;;;;9.60;99.90;;;;;;5018645;28;19967;-71
2021/12/24 05:41:54;;;;;;;;;;;9.60;99.90;;;;;;5015042;28;20014;-71
2021/12/24 05:44:23;;;;;;;;;;;9.70;99.90;;;;;;5011037;28;19925;-71
2021/12/24 05:47:00;;;;;;;;;;;11.10;99.90;;;;;;5005974;28;19925;-71
2021/12/24 05:49:47;;;;;;;;;;;9.70;99.90;;;;;;5011011;28;19929;-71
2021/12/24 05:52:32;;;;;;;;;;;9.80;99.90;;;;;;5031843;28;20079;-71
2021/12/24 05:55:19;;;;;;;;;;;9.80;99.90;;;;;;4984746;28;19980;-71
2021/12/24 05:57:48;;;;;;;;;;;9.80;99.90;;;;;;5020886;28;20034;-72
2021/12/24 06:00:16;;;;;;;;;;;9.80;99.90;;;;;;5022391;28;19925;-71
2021/12/24 06:02:47;;;;;;;;;;;9.80;99.90;;;;;;5027069;28;19922;-71
2021/12/24 06:05:15;;;;;;;;;;;11.90;99.90;;;;;;5030582;28;19925;-72
2021/12/24 06:07:42;;;;;;;;;;;9.90;99.90;;;;;;5036108;28;19926;-71
2021/12/24 06:10:09;;;;;;;;;;;9.80;99.90;;;;;;5037473;28;19921;-72
2021/12/24 06:12:36;;;;;;;;;;;9.80;99.90;;;;;;5024906;28;19929;-72
2021/12/24 06:15:06;;;;;;;;;;;9.90;99.90;;;;;;5019292;28;19951;-72
2021/12/24 06:17:36;;;;;;;;;;;9.90;99.90;;;;;;5031428;28;19929;-70
2021/12/24 06:20:03;;;;;;;;;;;9.90;99.90;;;;;;5037531;28;19929;-70
2021/12/24 06:22:31;;;;;;;;;;;9.90;99.90;;;;;;5039479;28;19931;-71
2021/12/24 06:24:57;;;;;;;;;;;9.90;99.90;;;;;;5028342;28;20402;-70
2021/12/24 06:27:24;;;;;;;;;;;9.90;99.90;;;;;;5028289;28;19925;-71
2021/12/24 06:29:51;;;;;;;;;;;9.90;99.90;;;;;;5038953;28;19921;-70
2021/12/24 06:32:18;;;;;;;;;;;8.90;99.90;;;;;;5033757;28;19925;-71
2021/12/24 06:34:44;;;;;;;;;;;9.90;99.90;;;;;;5021812;28;20011;-71
2021/12/24 06:37:11;;;;;;;;;;;10.00;99.90;;;;;;5033916;28;20397;-71
2021/12/24 06:39:39;;;;;;;;;;;9.90;99.90;;;;;;5031382;28;19920;-71
2021/12/24 06:42:06;;;;;;;;;;;10.00;99.90;;;;;;5023078;28;20318;-71
2021/12/24 06:44:33;;;;;;;;;;;10.00;99.90;;;;;;5025612;28;19928;-71
2021/12/24 06:47:00;;;;;;;;;;;10.00;99.90;;;;;;5027281;28;19928;-71
2021/12/24 06:49:27;;;;;;;;;;;10.00;99.90;;;;;;5030517;28;19974;-71
2021/12/24 06:51:54;;;;;;;;;;;10.00;99.90;;;;;;5027739;28;19925;-71
2021/12/24 06:54:21;;;;;;;;;;;10.00;99.90;;;;;;5024973;28;20320;-71
2021/12/24 06:56:50;;;;;;;;;;;9.90;99.90;;;;;;5011570;28;19931;-71
2021/12/24 06:59:17;;;;;;;;;;;10.00;99.90;;;;;;5032057;28;19925;-71
2021/12/24 07:01:45;;;;;;;;;;;10.00;99.90;;;;;;5006837;28;19925;-71
2021/12/24 07:04:12;;;;;;;;;;;9.90;99.90;;;;;;5006501;28;19928;-71
2021/12/24 07:06:43;;;;;;;;;;;9.90;99.90;;;;;;5036093;28;20304;-73
2021/12/24 07:09:10;;;;;;;;;;;9.90;99.90;;;;;;5025849;28;20409;-72
2021/12/24 07:11:37;;;;;;;;;;;9.90;99.90;;;;;;5025794;28;19961;-72
2021/12/24 07:14:05;;;;;;;;;;;9.90;99.90;;;;;;5020282;28;20221;-72
2021/12/24 07:16:32;;;;;;;;;;;9.90;99.90;;;;;;5024439;28;19932;-73
2021/12/24 07:18:58;;;;;;;;;;;9.90;99.90;;;;;;5021312;28;20406;-72
2021/12/24 07:21:25;;;;;;;;;;;9.90;99.90;;;;;;5025653;28;19947;-72
2021/12/24 07:23:52;;;;;;;;;;;9.90;99.90;;;;;;5030090;28;20276;-72
2021/12/24 07:26:19;;;;;;;;;;;9.90;99.90;;;;;;5026206;28;20424;-72
2021/12/24 07:28:47;;;;;;;;;;;9.90;99.90;;;;;;5030774;28;19941;-72
2021/12/24 07:31:15;;;;;;;;;;;10.00;99.90;;;;;;5032738;28;20375;-72
2021/12/24 07:33:42;;;;;;;;;;;10.00;99.90;;;;;;5024277;28;19929;-71
2021/12/24 07:36:09;;;;;;;;;;;10.00;99.90;;;;;;5026056;28;19920;-71
2021/12/24 07:38:35;;;;;;;;;;;10.00;99.90;;;;;;5028988;28;20448;-72
2021/12/24 07:41:02;;;;;;;;;;;10.00;99.90;;;;;;5026527;28;19924;-72
2021/12/24 07:43:29;;;;;;;;;;;9.90;99.90;;;;;;5018096;28;20378;-72
2021/12/24 07:45:55;;;;;;;;;;;10.00;99.90;;;;;;5020731;28;20227;-72
2021/12/24 07:48:28;;;;;;;;;;;10.00;99.90;;;;;;5022398;28;19925;-72
2021/12/24 07:53:41;;;;;;;;;;;10.00;99.90;;;;;;5017252;28;19917;-72
2021/12/24 07:56:08;;;;;;;;;;;10.00;99.90;;;;;;5018583;28;20302;-72
2021/12/24 07:58:35;;;;;;;;;;;10.00;99.90;;;;;;5030559;28;19921;-72
2021/12/24 08:01:01;;;;;;;;;;;10.00;99.90;;;;;;5019188;28;20047;-72
2021/12/24 08:03:29;;;;;;;;;;;10.00;99.90;;;;;;5034751;28;19932;-72
2021/12/24 08:05:56;;;;;;;;;;;10.00;99.90;;;;;;5027680;28;19925;-72
2021/12/24 08:08:23;;;;;;;;;;;10.10;99.90;;;;;;5024951;28;20531;-72
2021/12/24 08:10:50;;;;;;;;;;;10.10;99.90;;;;;;5026430;28;19921;-72
2021/12/24 08:13:19;;;;;;;;;;;10.10;99.90;;;;;;5031592;28;20024;-72
2021/12/24 08:15:49;;;;;;;;;;;10.10;99.90;;;;;;5026808;28;20430;-72
2021/12/24 08:18:16;;;;;;;;;;;10.10;99.90;;;;;;5025433;28;19939;-72
2021/12/24 08:20:44;;;;;;;;;;;10.10;99.90;;;;;;5023618;28;19972;-72
2021/12/24 08:23:11;;;;;;;;;;;10.80;99.90;;;;;;5032027;28;19924;-72
2021/12/24 08:25:38;;;;;;;;;;;10.10;99.90;;;;;;5023562;28;20039;-72
2021/12/24 08:28:05;;;;;;;;;;;10.10;99.90;;;;;;5021825;28;19925;-73
2021/12/24 08:30:32;;;;;;;;;;;10.10;99.90;;;;;;5022231;28;19921;-70
2021/12/24 08:33:00;;;;;;;;;;;10.10;99.90;;;;;;5017482;28;20466;-70
2021/12/24 08:35:28;;;;;;;;;;;10.10;99.90;;;;;;5021768;28;19921;-72
2021/12/24 08:37:56;;;;;;;;;;;10.20;99.90;;;;;;5028762;28;20020;-72
2021/12/24 08:40:23;;;;;;;;;;;10.20;99.90;;;;;;5040770;28;19936;-69
2021/12/24 08:42:50;;;;;;;;;;;10.20;99.90;;;;;;5033723;28;19944;-72
2021/12/24 08:45:17;;;;;;;;;;;11.50;99.90;;;;;;5023114;28;19926;-72
2021/12/24 08:47:44;;;;;;;;;;;10.20;99.90;;;;;;5029402;28;20399;-72
2021/12/24 08:50:13;;;;;;;;;;;10.20;99.90;;;;;;5031039;28;19925;-72
2021/12/24 08:52:42;;;;;;;;;;;10.10;99.90;;;;;;5028495;28;19925;-71
2021/12/24 08:55:10;;;;;;;;;;;10.20;99.90;;;;;;5031238;28;19926;-71
2021/12/24 08:57:37;;;;;;;;;;;10.20;99.90;;;;;;5027943;28;19929;-71
2021/12/24 09:00:05;;;;;;;;;;;10.20;99.90;;;;;;5027317;28;19921;-71
2021/12/24 09:02:31;;;;;;;;;;;10.10;99.90;;;;;;5031956;28;20450;-70
2021/12/24 09:04:58;;;;;;;;;;;10.20;99.90;;;;;;5021011;28;19925;-71
2021/12/24 09:07:25;;;;;;;;;;;10.20;99.90;;;;;;5017726;28;20344;-70
2021/12/24 09:09:52;;;;;;;;;;;9.80;99.90;;;;;;5029177;28;19925;-70
2021/12/24 09:12:20;;;;;;;;;;;10.10;99.90;;;;;;5023733;28;19925;-71
2021/12/24 09:14:47;;;;;;;;;;;10.10;99.90;;;;;;5022450;28;20657;-70
2021/12/24 09:17:14;;;;;;;;;;;10.10;99.90;;;;;;5036965;28;19931;-72
2021/12/24 09:19:45;;;;;;;;;;;10.10;99.90;;;;;;5040015;28;20436;-72
2021/12/24 09:22:16;;;;;;;;;;;10.20;99.90;;;;;;5031732;28;19935;-71
2021/12/24 09:24:43;;;;;;;;;;;10.20;99.90;;;;;;5038826;28;19954;-71
2021/12/24 09:27:10;;;;;;;;;;;11.30;99.90;;;;;;5024567;28;20204;-71
2021/12/24 09:29:38;;;;;;;;;;;10.30;99.90;;;;;;5004103;28;19925;-71
2021/12/24 09:32:05;;;;;;;;;;;10.90;99.90;;;;;;5022498;28;19952;-71
2021/12/24 09:34:32;;;;;;;;;;;10.30;99.90;;;;;;5019904;28;19936;-71
2021/12/24 09:36:58;;;;;;;;;;;10.30;99.90;;;;;;5016255;28;19921;-72
2021/12/24 09:39:25;;;;;;;;;;;10.30;99.90;;;;;;5023387;28;20442;-71
2021/12/24 09:41:53;;;;;;;;;;;10.40;99.90;;;;;;5013576;28;19924;-71
2021/12/24 09:44:20;;;;;;;;;;;10.40;99.90;;;;;;5024421;28;20435;-70
2021/12/24 09:46:49;;;;;;;;;;;10.40;99.90;;;;;;5018676;28;21020;-70
2021/12/24 09:49:16;;;;;;;;;;;10.40;99.90;;;;;;5022330;28;20039;-70
2021/12/24 09:51:45;;;;;;;;;;;10.40;99.90;;;;;;5022177;28;20020;-71
2021/12/24 09:54:12;;;;;;;;;;;10.50;99.90;;;;;;5016704;28;19920;-70
2021/12/24 09:56:39;;;;;;;;;;;10.60;99.90;;;;;;5025970;28;20370;-71
2021/12/24 09:59:06;;;;;;;;;;;10.60;99.90;;;;;;5023359;28;20008;-72
2021/12/24 10:01:34;;;;;;;;;;;10.60;99.90;;;;;;5008528;28;20310;-71
2021/12/24 10:04:04;;;;;;;;;;;10.70;99.90;;;;;;5023233;28;19929;-71
2021/12/24 10:06:31;;;;;;;;;;;10.70;99.90;;;;;;5019066;28;20381;-71
2021/12/24 10:09:02;;;;;;;;;;;10.70;99.90;;;;;;5036093;28;19920;-71
2021/12/24 10:11:30;;;;;;;;;;;10.70;99.90;;;;;;5025379;28;19925;-72
2021/12/24 10:14:04;;;;;;;;;;;10.70;99.90;;;;;;5034949;28;19947;-72
2021/12/24 10:16:32;;;;;;;;;;;10.70;99.90;;;;;;5003488;28;19932;-71
2021/12/24 10:19:01;;;;;;;;;;;10.70;99.90;;;;;;5032994;28;19928;-72
2021/12/24 10:21:30;;;;;;;;;;;10.70;99.90;;;;;;5028607;28;19921;-71
2021/12/24 10:23:59;;;;;;;;;;;10.60;99.90;;;;;;5018391;28;20366;-71
2021/12/24 10:26:28;;;;;;;;;;;10.60;99.90;;;;;;5013639;28;19940;-70
2021/12/24 10:28:56;;;;;;;;;;;10.60;99.90;;;;;;5016684;28;19925;-71
2021/12/24 10:31:24;;;;;;;;;;;10.60;99.90;;;;;;5005045;28;19925;-70
2021/12/24 10:34:08;;;;;;;;;;;10.60;99.90;;;;;;5027197;28;19924;-69
2021/12/24 10:36:51;;;;;;;;;;;10.60;99.90;;;;;;5019148;28;19975;-69
2021/12/24 10:39:18;;;;;;;;;;;10.60;99.90;;;;;;5027184;28;20521;-70
2021/12/24 10:41:46;;;;;;;;;;;10.60;99.90;;;;;;5023301;28;20357;-71
2021/12/24 10:44:16;;;;;;;;;;;10.60;99.90;;;;;;5002851;28;19926;-72
2021/12/24 10:46:56;;;;;;;;;;;10.70;99.90;;;;;;5031303;28;19924;-72
2021/12/24 10:49:35;;;;;;;;;;;10.80;99.90;;;;;;5018751;28;19979;-69
2021/12/24 10:52:13;;;;;;;;;;;10.90;99.90;;;;;;5019394;28;20541;-70
2021/12/24 10:54:51;;;;;;;;;;;11.00;99.90;;;;;;5022839;28;20007;-69
2021/12/24 10:57:19;;;;;;;;;;;11.10;99.90;;;;;;5025858;28;19935;-69
2021/12/24 10:59:48;;;;;;;;;;;11.10;99.90;;;;;;5038299;28;19925;-70
2021/12/24 11:02:15;;;;;;;;;;;11.10;99.90;;;;;;5026234;28;19965;-69
2021/12/24 11:04:42;;;;;;;;;;;11.10;99.90;;;;;;5023636;28;19925;-69
2021/12/24 11:07:30;;;;;;;;;;;11.20;99.90;;;;;;5025514;28;19925;-70
2021/12/24 11:10:11;;;;;;;;;;;11.20;99.90;;;;;;5026004;28;19937;-70
2021/12/24 11:12:39;;;;;;;;;;;11.20;99.90;;;;;;5018418;28;19995;-70
2021/12/24 11:15:17;;;;;;;;;;;11.20;99.90;;;;;;5020429;28;20023;-69
2021/12/24 11:17:44;;;;;;;;;;;11.10;99.90;;;;;;5030274;28;19925;-70
2021/12/24 11:20:11;;;;;;;;;;;11.10;99.90;;;;;;5023120;28;19927;-70
2021/12/24 11:22:50;;;;;;;;;;;11.00;99.90;;;;;;5017915;28;19971;-70
2021/12/24 11:25:19;;;;;;;;;;;11.00;99.90;;;;;;5021166;28;19925;-70
2021/12/24 11:27:46;;;;;;;;;;;11.00;99.90;;;;;;5017063;28;19970;-70
2021/12/24 11:30:13;;;;;;;;;;;10.90;99.90;;;;;;5022405;28;19932;-70
2021/12/24 11:32:40;;;;;;;;;;;10.80;99.90;;;;;;5017171;28;19929;-70
2021/12/24 11:35:07;;;;;;;;;;;10.80;99.90;;;;;;5021609;28;19932;-70
2021/12/24 11:37:34;;;;;;;;;;;10.70;99.90;;;;;;5021549;28;19921;-71
2021/12/24 11:40:03;;;;;;;;;;;10.70;99.90;;;;;;5021020;28;20402;-71
2021/12/24 11:42:32;;;;;;;;;;;10.70;99.90;;;;;;5018812;28;20301;-70
2021/12/24 11:45:00;;;;;;;;;;;11.20;99.90;;;;;;5028762;28;19991;-71
2021/12/24 11:47:27;;;;;;;;;;;11.00;99.90;;;;;;5028282;28;19925;-70
2021/12/24 11:49:54;;;;;;;;;;;10.60;99.90;;;;;;5020166;28;19928;-70
2021/12/24 11:52:20;;;;;;;;;;;10.60;99.90;;;;;;5024200;28;19925;-71
2021/12/24 11:54:47;;;;;;;;;;;11.20;99.90;;;;;;5033498;28;19931;-70
2021/12/24 11:57:21;;;;;;;;;;;10.50;99.90;;;;;;5025732;28;19947;-71
2021/12/24 11:59:48;;;;;;;;;;;10.50;99.90;;;;;;5028757;28;19992;-70
2021/12/24 12:02:29;;;;;;;;;;;10.50;99.90;;;;;;5029066;28;19951;-71
2021/12/24 12:05:10;;;;;;;;;;;10.50;99.90;;;;;;5020057;28;19931;-70
2021/12/24 12:07:37;;;;;;;;;;;10.40;99.90;;;;;;5028195;28;19931;-71
2021/12/24 12:10:04;;;;;;;;;;;10.40;99.90;;;;;;5029873;28;20421;-70
2021/12/24 12:12:34;;;;;;;;;;;10.30;99.90;;;;;;5022979;28;19924;-71
2021/12/24 12:15:19;;;;;;;;;;;8.90;99.90;;;;;;5025012;28;19931;-70
2021/12/24 12:17:49;;;;;;;;;;;10.30;99.90;;;;;;5037865;28;20102;-71
2021/12/24 12:20:35;;;;;;;;;;;10.30;99.90;;;;;;5033431;28;19943;-71
2021/12/24 12:23:02;;;;;;;;;;;10.30;99.90;;;;;;5027207;28;20421;-70
2021/12/24 12:25:33;;;;;;;;;;;10.30;99.90;;;;;;5025110;28;19929;-71
2021/12/24 12:28:02;;;;;;;;;;;10.30;99.90;;;;;;5029465;28;19936;-70
2021/12/24 12:30:30;;;;;;;;;;;10.30;99.90;;;;;;5030933;28;19928;-71
2021/12/24 12:33:07;;;;;;;;;;;10.30;99.90;;;;;;5038309;28;19932;-71
2021/12/24 12:35:35;;;;;;;;;;;10.30;99.90;;;;;;5029361;28;19921;-71
2021/12/24 12:38:02;;;;;;;;;;;10.40;99.90;;;;;;5029194;28;19928;-71
2021/12/24 12:40:31;;;;;;;;;;;10.40;99.90;;;;;;5029016;28;19921;-70
2021/12/24 12:43:15;;;;;;;;;;;10.50;99.90;;;;;;5036087;28;19924;-71
2021/12/24 12:46:06;;;;;;;;;;;10.50;99.90;;;;;;5032959;28;19925;-71
2021/12/24 12:48:56;;;;;;;;;;;10.60;99.90;;;;;;5029378;28;19955;-71
2021/12/24 12:51:45;;;;;;;;;;;10.60;99.90;;;;;;5016804;28;19931;-71
2021/12/24 12:54:28;;;;;;;;;;;10.70;99.90;;;;;;5033017;28;19929;-71
2021/12/24 12:57:09;;;;;;;;;;;10.70;99.90;;;;;;5021767;28;19935;-71
2021/12/24 12:59:35;;;;;;;;;;;10.60;99.90;;;;;;5029413;28;19928;-71
2021/12/24 13:02:02;;;;;;;;;;;10.70;99.90;;;;;;5026856;28;19925;-71
2021/12/24 13:04:29;;;;;;;;;;;10.70;99.90;;;;;;5030307;28;20429;-70
2021/12/24 13:06:58;;;;;;;;;;;10.80;99.90;;;;;;5029693;28;19941;-70
2021/12/24 13:09:28;;;;;;;;;;;10.80;99.90;;;;;;5033485;28;19976;-70
2021/12/24 13:11:55;;;;;;;;;;;10.80;99.90;;;;;;5029828;28;19928;-70
2021/12/24 13:14:24;;;;;;;;;;;10.80;99.90;;;;;;5035664;28;19932;-70
2021/12/24 13:16:53;;;;;;;;;;;10.80;99.90;;;;;;5032148;28;19936;-68
2021/12/24 13:19:31;;;;;;;;;;;10.80;99.90;;;;;;5031948;28;20404;-69
2021/12/24 13:24:48;;;;;;;;;;;10.80;99.90;;;;;;5032967;28;19925;-69
2021/12/24 13:27:15;;;;;;;;;;;10.80;99.90;;;;;;5036390;28;19925;-70
2021/12/24 13:29:42;;;;;;;;;;;10.90;99.90;;;;;;5038323;28;19927;-70
2021/12/24 13:32:08;;;;;;;;;;;10.90;99.90;;;;;;5011760;28;19925;-70
2021/12/24 13:34:36;;;;;;;;;;;11.00;99.90;;;;;;5039461;28;19927;-70
2021/12/24 13:37:11;;;;;;;;;;;11.00;99.90;;;;;;5034157;28;20394;-70
2021/12/24 13:39:45;;;;;;;;;;;11.00;99.90;;;;;;5032010;28;19940;-70
2021/12/24 13:42:11;;;;;;;;;;;11.10;99.90;;;;;;5030246;28;19921;-70
2021/12/24 13:44:39;;;;;;;;;;;11.10;99.90;;;;;;5030624;28;20303;-70
2021/12/24 13:47:08;;;;;;;;;;;11.10;99.90;;;;;;5020359;28;19928;-70
2021/12/24 13:49:47;;;;;;;;;;;11.10;99.90;;;;;;5024641;28;20036;-70
2021/12/24 13:54:59;;;;;;;;;;;11.10;99.90;;;;;;5026710;28;20414;-70
2021/12/24 13:57:26;;;;;;;;;;;11.10;99.90;;;;;;5026573;28;19925;-70
2021/12/24 13:59:53;;;;;;;;;;;12.50;99.90;;;;;;5028189;28;19944;-70
2021/12/24 14:02:19;;;;;;;;;;;11.10;99.90;;;;;;5039352;28;20374;-69
2021/12/24 14:04:46;;;;;;;;;;;11.10;99.90;;;;;;5041382;28;19929;-69
2021/12/24 14:07:13;;;;;;;;;;;11.10;99.90;;;;;;5031485;28;19969;-70
2021/12/24 14:09:41;;;;;;;;;;;11.00;99.90;;;;;;5024613;28;20382;-70
2021/12/24 14:12:09;;;;;;;;;;;11.00;99.90;;;;;;5026199;28;19922;-70
2021/12/24 14:14:46;;;;;;;;;;;11.00;99.90;;;;;;5026981;28;19932;-70
2021/12/24 14:20:06;;;;;;;;;;;10.90;99.90;;;;;;5015358;28;20012;-70
2021/12/24 14:22:34;;;;;;;;;;;10.90;99.90;;;;;;5030479;28;20015;-70
2021/12/24 14:25:07;;;;;;;;;;;10.90;99.90;;;;;;5006653;28;19924;-70
2021/12/24 14:27:35;;;;;;;;;;;10.90;99.90;;;;;;5019435;28;19932;-71
2021/12/24 14:30:03;;;;;;;;;;;10.80;99.90;;;;;;5029874;28;19921;-70
2021/12/24 14:32:30;;;;;;;;;;;10.80;99.90;;;;;;5029856;28;19925;-70
2021/12/24 14:34:59;;;;;;;;;;;10.80;99.90;;;;;;5029973;28;20710;-71
2021/12/24 14:37:28;;;;;;;;;;;10.90;99.90;;;;;;5027767;28;19924;-71
2021/12/24 14:39:55;;;;;;;;;;;10.90;99.90;;;;;;5035472;28;19921;-70
2021/12/24 14:42:25;;;;;;;;;;;10.90;99.90;;;;;;5029475;28;19975;-70
2021/12/24 14:44:53;;;;;;;;;;;11.60;99.90;;;;;;5022616;28;20410;-70
2021/12/24 14:47:22;;;;;;;;;;;10.90;99.90;;;;;;5025854;28;19928;-70
2021/12/24 14:49:49;;;;;;;;;;;10.80;99.90;;;;;;5029580;28;19924;-70
2021/12/24 14:52:16;;;;;;;;;;;10.80;99.90;;;;;;5008929;28;19931;-71
2021/12/24 14:55:02;;;;;;;;;;;10.80;99.90;;;;;;5029187;28;19928;-70
2021/12/24 14:57:31;;;;;;;;;;;10.50;99.90;;;;;;5024281;28;20382;-70
2021/12/24 15:00:04;;;;;;;;;;;10.80;99.90;;;;;;5032066;28;19932;-70
2021/12/24 15:02:31;;;;;;;;;;;10.70;99.90;;;;;;5022381;28;19927;-71
2021/12/24 15:04:58;;;;;;;;;;;10.70;99.90;;;;;;5032499;28;19931;-71
2021/12/24 15:07:30;;;;;;;;;;;10.60;99.90;;;;;;5022658;28;19920;-71
2021/12/24 15:10:08;;;;;;;;;;;10.60;99.90;;;;;;5027187;28;19925;-71
2021/12/24 15:12:41;;;;;;;;;;;10.50;99.90;;;;;;5033164;28;19925;-71
2021/12/24 15:15:08;;;;;;;;;;;10.50;99.90;;;;;;5027816;28;19925;-71
2021/12/24 15:17:38;;;;;;;;;;;10.40;99.90;;;;;;5030313;28;20388;-71
2021/12/24 15:20:06;;;;;;;;;;;10.30;99.90;;;;;;5028923;28;19928;-70
2021/12/24 15:22:33;;;;;;;;;;;10.20;99.90;;;;;;5024998;28;19929;-71
2021/12/24 15:24:59;;;;;;;;;;;10.10;99.90;;;;;;5039084;28;20155;-71
2021/12/24 15:27:31;;;;;;;;;;;9.90;99.90;;;;;;5031643;28;19936;-71
2021/12/24 15:30:00;;;;;;;;;;;9.90;99.90;;;;;;5032894;28;19925;-70